createdAt,value
2018-09-30T00:00:23.693Z,56.40
2018-09-30T00:01:27.145Z,56.07
2018-09-30T00:02:30.583Z,55.88
2018-09-30T00:03:33.991Z,56.16
2018-09-30T00:04:37.413Z,55.66
2018-09-30T00:05:41.016Z,55.96
2018-09-30T00:06:44.485Z,55.79
2018-09-30T00:07:47.927Z,55.27
2018-09-30T00:08:51.382Z,55.91
2018-09-30T00:09:54.872Z,55.81
2018-09-30T00:10:58.352Z,55.17
2018-09-30T00:12:02.918Z,55.23
2018-09-30T00:13:06.413Z,55.39
2018-09-30T00:14:09.880Z,55.59
2018-09-30T00:15:13.360Z,55.32
2018-09-30T00:16:16.867Z,54.95
2018-09-30T00:17:20.274Z,55.02
2018-09-30T00:18:23.744Z,54.87
2018-09-30T00:19:27.227Z,55.28
2018-09-30T00:20:30.683Z,55.44
2018-09-30T00:21:34.137Z,54.78
2018-09-30T00:22:37.584Z,54.89
2018-09-30T00:23:46.484Z,55.31
2018-09-30T00:24:55.117Z,55.63
2018-09-30T00:27:05.669Z,55.46
2018-09-30T00:28:09.097Z,55.09
2018-09-30T00:29:12.564Z,55.75
2018-09-30T00:30:16.039Z,55.37
2018-09-30T00:31:19.542Z,55.52
2018-09-30T00:32:22.957Z,55.88
2018-09-30T00:33:26.364Z,56.03
2018-09-30T00:34:30.628Z,55.38
2018-09-30T00:35:34.067Z,55.41
2018-09-30T00:36:37.486Z,55.68
2018-09-30T00:37:40.942Z,56.11
2018-09-30T00:38:44.425Z,55.54
2018-09-30T00:39:47.861Z,55.76
2018-09-30T00:40:51.399Z,56.21
2018-09-30T00:41:55.130Z,56.15
2018-09-30T00:42:58.685Z,56.09
2018-09-30T00:44:02.137Z,56.32
2018-09-30T00:45:05.631Z,56.18
2018-09-30T00:46:09.257Z,56.52
2018-09-30T00:47:12.687Z,56.16
2018-09-30T00:48:16.165Z,56.23
2018-09-30T00:49:19.588Z,56.52
2018-09-30T00:50:23.088Z,56.75
2018-09-30T00:51:26.495Z,56.63
2018-09-30T00:52:29.913Z,56.39
2018-09-30T00:53:33.392Z,56.90
2018-09-30T00:54:36.852Z,56.63
2018-09-30T00:55:40.337Z,56.81
2018-09-30T00:56:44.050Z,56.31
2018-09-30T00:57:47.512Z,56.18
2018-09-30T00:58:50.927Z,57.18
2018-09-30T00:59:54.383Z,57.10
2018-09-30T01:00:57.840Z,56.98
2018-09-30T01:02:01.276Z,57.50
2018-09-30T01:03:04.720Z,57.23
2018-09-30T01:04:08.487Z,57.10
2018-09-30T01:05:11.953Z,57.72
2018-09-30T01:06:15.390Z,57.07
2018-09-30T01:07:18.817Z,57.68
2018-09-30T01:08:22.251Z,56.96
2018-09-30T01:09:25.652Z,56.54
2018-09-30T01:10:29.056Z,56.93
2018-09-30T01:11:32.550Z,56.42
2018-09-30T01:12:35.999Z,56.62
2018-09-30T01:13:39.441Z,56.15
2018-09-30T01:14:42.893Z,56.56
2018-09-30T01:15:46.317Z,56.36
2018-09-30T01:16:49.793Z,55.92
2018-09-30T01:17:53.217Z,55.60
2018-09-30T01:18:56.628Z,56.28
2018-09-30T01:20:00.040Z,56.19
2018-09-30T01:21:03.486Z,56.07
2018-09-30T01:22:06.991Z,55.64
2018-09-30T01:23:10.405Z,55.81
2018-09-30T01:24:13.861Z,55.66
2018-09-30T01:25:17.307Z,56.16
2018-09-30T01:26:20.719Z,56.22
2018-09-30T01:27:24.151Z,55.44
2018-09-30T01:28:27.574Z,56.14
2018-09-30T01:29:31.016Z,56.30
2018-09-30T01:30:34.445Z,55.77
2018-09-30T01:31:37.823Z,56.29
2018-09-30T01:32:41.238Z,56.24
2018-09-30T01:33:44.727Z,55.59
2018-09-30T01:34:48.244Z,56.19
2018-09-30T01:35:52.677Z,55.72
2018-09-30T01:36:56.102Z,55.82
2018-09-30T01:37:59.523Z,56.28
2018-09-30T01:39:03.858Z,56.12
2018-09-30T01:40:07.602Z,57.01
2018-09-30T01:41:11.057Z,56.19
2018-09-30T01:42:14.427Z,56.82
2018-09-30T01:43:17.911Z,56.96
2018-09-30T01:44:21.343Z,56.42
2018-09-30T01:45:24.761Z,56.86
2018-09-30T01:46:28.239Z,56.98
2018-09-30T01:47:31.657Z,56.90
2018-09-30T01:48:35.104Z,56.72
2018-09-30T01:49:38.543Z,56.97
2018-09-30T01:50:41.973Z,56.45
2018-09-30T01:51:45.422Z,57.01
2018-09-30T01:52:54.887Z,57.06
2018-09-30T01:53:58.311Z,57.05
2018-09-30T01:55:01.776Z,57.10
2018-09-30T01:56:05.207Z,57.41
2018-09-30T01:57:08.649Z,57.51
2018-09-30T01:58:12.066Z,56.93
2018-09-30T01:59:15.545Z,57.03
2018-09-30T02:00:19.453Z,57.41
2018-09-30T02:01:22.894Z,57.08
2018-09-30T02:02:26.263Z,57.73
2018-09-30T02:03:29.662Z,57.14
2018-09-30T02:04:33.172Z,57.11
2018-09-30T02:05:36.611Z,57.10
2018-09-30T02:06:40.027Z,57.31
2018-09-30T02:07:43.507Z,57.23
2018-09-30T02:08:46.937Z,57.51
2018-09-30T02:09:50.440Z,57.96
2018-09-30T02:10:53.866Z,57.94
2018-09-30T02:11:57.276Z,58.11
2018-09-30T02:13:00.721Z,57.67
2018-09-30T02:14:04.141Z,58.46
2018-09-30T02:15:07.685Z,57.62
2018-09-30T02:16:11.135Z,57.67
2018-09-30T02:17:14.555Z,57.93
2018-09-30T02:18:18.016Z,57.81
2018-09-30T02:19:21.449Z,57.94
2018-09-30T02:20:24.886Z,57.65
2018-09-30T02:21:28.333Z,57.24
2018-09-30T02:22:31.784Z,57.33
2018-09-30T02:23:35.196Z,56.89
2018-09-30T02:24:38.622Z,57.01
2018-09-30T02:25:42.125Z,56.80
2018-09-30T02:26:45.634Z,57.06
2018-09-30T02:27:49.097Z,56.79
2018-09-30T02:28:52.594Z,56.72
2018-09-30T02:29:56.004Z,56.59
2018-09-30T02:30:59.462Z,56.86
2018-09-30T02:32:02.915Z,56.16
2018-09-30T02:33:06.391Z,56.46
2018-09-30T02:34:09.857Z,56.01
2018-09-30T02:35:13.266Z,56.74
2018-09-30T02:36:16.765Z,56.13
2018-09-30T02:37:20.201Z,56.64
2018-09-30T02:38:23.643Z,56.38
2018-09-30T02:39:27.075Z,57.04
2018-09-30T02:40:30.498Z,56.96
2018-09-30T02:41:33.970Z,56.94
2018-09-30T02:42:37.454Z,56.52
2018-09-30T02:43:41.095Z,56.10
2018-09-30T02:44:44.573Z,56.41
2018-09-30T02:45:48.038Z,56.35
2018-09-30T02:46:51.489Z,56.88
2018-09-30T02:47:54.922Z,56.15
2018-09-30T02:48:58.339Z,56.51
2018-09-30T02:50:01.785Z,56.64
2018-09-30T02:51:05.366Z,56.48
2018-09-30T02:52:08.763Z,57.04
2018-09-30T02:53:12.216Z,57.03
2018-09-30T02:54:15.634Z,57.19
2018-09-30T02:55:19.035Z,56.99
2018-09-30T02:56:22.504Z,57.14
2018-09-30T02:57:25.959Z,57.25
2018-09-30T02:58:29.354Z,57.33
2018-09-30T02:59:32.780Z,57.10
2018-09-30T03:00:36.215Z,57.70
2018-09-30T03:01:39.720Z,57.04
2018-09-30T03:02:43.137Z,57.84
2018-09-30T03:03:46.550Z,57.44
2018-09-30T03:04:49.994Z,57.61
2018-09-30T03:05:53.395Z,57.86
2018-09-30T03:07:02.074Z,57.74
2018-09-30T03:08:10.927Z,57.61
2018-09-30T03:09:16.148Z,57.65
2018-09-30T03:10:19.585Z,58.28
2018-09-30T03:11:23.068Z,57.91
2018-09-30T03:12:26.554Z,58.13
2018-09-30T03:13:29.974Z,58.59
2018-09-30T03:14:33.399Z,58.00
2018-09-30T03:15:36.841Z,58.24
2018-09-30T03:16:40.451Z,58.04
2018-09-30T03:17:43.933Z,58.86
2018-09-30T03:18:47.347Z,58.77
2018-09-30T03:19:50.847Z,57.83
2018-09-30T03:20:54.263Z,57.96
2018-09-30T03:21:57.705Z,57.94
2018-09-30T03:23:01.145Z,58.41
2018-09-30T03:24:04.589Z,58.35
2018-09-30T03:25:08.009Z,58.37
2018-09-30T03:26:11.430Z,58.28
2018-09-30T03:27:14.847Z,58.38
2018-09-30T03:28:18.300Z,57.99
2018-09-30T03:29:21.768Z,57.42
2018-09-30T03:30:25.185Z,57.53
2018-09-30T03:31:28.635Z,57.97
2018-09-30T03:32:32.053Z,57.32
2018-09-30T03:33:35.519Z,57.22
2018-09-30T03:34:38.981Z,57.25
2018-09-30T03:35:42.401Z,57.09
2018-09-30T03:36:45.876Z,56.82
2018-09-30T03:37:49.315Z,56.54
2018-09-30T03:38:52.773Z,57.13
2018-09-30T03:39:56.188Z,56.42
2018-09-30T03:40:59.661Z,56.75
2018-09-30T03:42:03.148Z,56.58
2018-09-30T03:43:06.635Z,56.68
2018-09-30T03:44:10.083Z,56.43
2018-09-30T03:45:13.535Z,56.91
2018-09-30T03:46:16.999Z,56.06
2018-09-30T03:47:20.420Z,56.52
2018-09-30T03:48:23.869Z,56.83
2018-09-30T03:49:27.266Z,56.16
2018-09-30T03:50:30.724Z,56.87
2018-09-30T03:51:34.154Z,56.26
2018-09-30T03:52:37.585Z,57.04
2018-09-30T03:53:41.021Z,56.42
2018-09-30T03:54:44.456Z,56.65
2018-09-30T03:55:47.875Z,56.38
2018-09-30T03:56:51.276Z,56.78
2018-09-30T03:57:54.672Z,57.18
2018-09-30T03:58:58.116Z,56.66
2018-09-30T04:00:01.783Z,57.50
2018-09-30T04:01:05.239Z,57.30
2018-09-30T04:02:08.686Z,57.33
2018-09-30T04:03:12.071Z,57.30
2018-09-30T04:04:15.508Z,57.38
2018-09-30T04:05:18.957Z,57.47
2018-09-30T04:06:22.364Z,57.55
2018-09-30T04:07:25.796Z,57.40
2018-09-30T04:08:29.207Z,57.63
2018-09-30T04:09:32.733Z,57.17
2018-09-30T04:10:36.110Z,57.93
2018-09-30T04:11:39.552Z,57.61
2018-09-30T04:12:42.990Z,57.17
2018-09-30T04:13:46.400Z,57.25
2018-09-30T04:14:49.803Z,57.79
2018-09-30T04:15:53.245Z,57.22
2018-09-30T04:16:56.740Z,57.46
2018-09-30T04:18:00.140Z,58.14
2018-09-30T04:19:03.624Z,58.00
2018-09-30T04:20:07.111Z,57.92
2018-09-30T04:21:10.564Z,58.35
2018-09-30T04:22:13.998Z,58.62
2018-09-30T04:23:17.454Z,58.82
2018-09-30T04:24:20.959Z,58.62
2018-09-30T04:25:24.402Z,59.17
2018-09-30T04:26:27.822Z,58.24
2018-09-30T04:27:31.240Z,58.62
2018-09-30T04:28:34.697Z,59.19
2018-09-30T04:29:38.163Z,58.92
2018-09-30T04:30:41.622Z,59.16
2018-09-30T04:31:45.029Z,59.06
2018-09-30T04:32:48.492Z,58.31
2018-09-30T04:33:51.973Z,58.39
2018-09-30T04:34:55.373Z,58.38
2018-09-30T04:35:58.816Z,58.53
2018-09-30T04:37:02.465Z,57.75
2018-09-30T04:38:06.201Z,58.23
2018-09-30T04:39:10.081Z,57.95
2018-09-30T04:40:13.503Z,57.35
2018-09-30T04:41:16.958Z,57.74
2018-09-30T04:42:20.440Z,57.62
2018-09-30T04:43:23.895Z,57.03
2018-09-30T04:44:27.321Z,57.42
2018-09-30T04:45:30.735Z,57.14
2018-09-30T04:46:34.187Z,56.91
2018-09-30T04:47:37.594Z,57.49
2018-09-30T04:48:41.007Z,56.69
2018-09-30T04:49:44.444Z,56.73
2018-09-30T04:50:47.910Z,56.73
2018-09-30T04:51:51.335Z,56.72
2018-09-30T04:52:54.774Z,57.14
2018-09-30T04:53:58.188Z,57.24
2018-09-30T04:55:01.602Z,56.80
2018-09-30T04:56:05.032Z,57.09
2018-09-30T04:57:08.489Z,57.12
2018-09-30T04:58:11.900Z,56.80
2018-09-30T04:59:15.408Z,56.85
2018-09-30T05:00:18.848Z,57.62
2018-09-30T05:01:22.298Z,57.40
2018-09-30T05:02:25.742Z,57.63
2018-09-30T05:03:29.199Z,57.93
2018-09-30T05:04:32.659Z,57.61
2018-09-30T05:05:36.102Z,57.63
2018-09-30T05:06:39.520Z,57.48
2018-09-30T05:07:42.955Z,57.23
2018-09-30T05:08:46.395Z,57.49
2018-09-30T05:09:49.829Z,57.85
2018-09-30T05:10:53.247Z,57.75
2018-09-30T05:11:56.666Z,58.00
2018-09-30T05:13:00.086Z,57.61
2018-09-30T05:14:03.482Z,57.64
2018-09-30T05:15:06.954Z,57.93
2018-09-30T05:16:10.463Z,57.57
2018-09-30T05:17:13.801Z,58.33
2018-09-30T05:18:17.234Z,57.88
2018-09-30T05:19:20.679Z,58.09
2018-09-30T05:20:24.144Z,58.41
2018-09-30T05:21:27.638Z,58.03
2018-09-30T05:22:31.063Z,57.76
2018-09-30T05:23:34.496Z,58.20
2018-09-30T05:24:37.945Z,58.58
2018-09-30T05:25:41.367Z,58.32
2018-09-30T05:26:44.819Z,58.13
2018-09-30T05:27:48.279Z,58.15
2018-09-30T05:28:51.752Z,58.02
2018-09-30T05:29:55.197Z,58.43
2018-09-30T05:30:58.687Z,58.23
2018-09-30T05:32:02.142Z,59.02
2018-09-30T05:33:05.582Z,58.72
2018-09-30T05:34:09.029Z,58.64
2018-09-30T05:35:12.446Z,58.94
2018-09-30T05:36:15.871Z,58.42
2018-09-30T05:37:19.366Z,58.28
2018-09-30T05:38:22.739Z,58.50
2018-09-30T05:39:26.195Z,58.19
2018-09-30T05:40:29.640Z,58.33
2018-09-30T05:41:33.084Z,57.59
2018-09-30T05:42:36.524Z,57.72
2018-09-30T05:43:39.981Z,57.98
2018-09-30T05:44:44.096Z,57.66
2018-09-30T05:45:47.549Z,58.23
2018-09-30T05:46:51.035Z,57.70
2018-09-30T05:47:54.457Z,57.96
2018-09-30T05:48:57.921Z,57.81
2018-09-30T05:50:01.347Z,57.10
2018-09-30T05:51:04.778Z,58.00
2018-09-30T05:52:08.260Z,57.74
2018-09-30T05:53:11.709Z,57.46
2018-09-30T05:54:15.352Z,57.71
2018-09-30T05:55:18.755Z,57.71
2018-09-30T05:56:22.196Z,57.28
2018-09-30T05:57:25.661Z,57.73
2018-09-30T05:58:29.081Z,57.41
2018-09-30T05:59:32.517Z,57.32
2018-09-30T06:00:35.961Z,57.57
2018-09-30T06:01:39.624Z,57.69
2018-09-30T06:02:43.047Z,57.45
2018-09-30T06:03:46.669Z,57.25
2018-09-30T06:04:50.150Z,57.73
2018-09-30T06:05:53.572Z,57.72
2018-09-30T06:06:56.989Z,57.62
2018-09-30T06:08:00.461Z,57.73
2018-09-30T06:09:05.153Z,57.82
2018-09-30T06:10:08.624Z,58.21
2018-09-30T06:11:12.078Z,57.67
2018-09-30T06:12:15.510Z,58.29
2018-09-30T06:13:18.941Z,58.46
2018-09-30T06:14:22.453Z,58.21
2018-09-30T06:15:25.882Z,58.41
2018-09-30T06:16:29.332Z,58.77
2018-09-30T06:17:32.812Z,58.64
2018-09-30T06:18:36.233Z,58.62
2018-09-30T06:19:39.791Z,58.45
2018-09-30T06:20:43.229Z,59.52
2018-09-30T06:21:46.707Z,59.30
2018-09-30T06:22:50.181Z,59.03
2018-09-30T06:23:53.632Z,59.47
2018-09-30T06:24:57.087Z,59.46
2018-09-30T06:26:00.604Z,59.73
2018-09-30T06:27:04.047Z,59.85
2018-09-30T06:28:07.521Z,59.34
2018-09-30T06:29:11.118Z,59.54
2018-09-30T06:30:14.599Z,59.91
2018-09-30T06:31:18.020Z,59.86
2018-09-30T06:32:21.463Z,59.46
2018-09-30T06:33:24.906Z,59.57
2018-09-30T06:34:28.383Z,59.07
2018-09-30T06:35:31.824Z,59.21
2018-09-30T06:36:35.323Z,59.25
2018-09-30T06:37:38.746Z,58.75
2018-09-30T06:38:42.210Z,57.76
2018-09-30T06:39:45.713Z,56.36
2018-09-30T06:40:49.164Z,56.25
2018-09-30T06:41:52.649Z,54.93
2018-09-30T06:42:56.080Z,54.51
2018-09-30T06:43:59.568Z,53.20
2018-09-30T06:45:03.203Z,52.23
2018-09-30T06:46:06.852Z,50.40
2018-09-30T06:47:10.350Z,49.31
2018-09-30T06:48:13.844Z,49.05
2018-09-30T06:49:17.315Z,48.99
2018-09-30T06:50:20.887Z,48.34
2018-09-30T06:51:25.243Z,48.22
2018-09-30T06:52:28.753Z,47.58
2018-09-30T06:53:32.222Z,47.41
2018-09-30T06:54:35.705Z,46.88
2018-09-30T06:55:39.153Z,45.65
2018-09-30T06:56:42.752Z,46.02
2018-09-30T06:57:46.289Z,45.91
2018-09-30T06:58:49.828Z,46.34
2018-09-30T06:59:53.344Z,46.57
2018-09-30T07:00:56.781Z,46.69
2018-09-30T07:02:00.285Z,46.75
2018-09-30T07:03:03.936Z,46.48
2018-09-30T07:04:07.523Z,46.95
2018-09-30T07:05:11.006Z,45.83
2018-09-30T07:06:14.853Z,47.05
2018-09-30T07:07:18.309Z,46.44
2018-09-30T07:08:21.767Z,46.56
2018-09-30T07:09:25.201Z,46.04
2018-09-30T07:10:28.628Z,45.30
2018-09-30T07:11:32.200Z,44.50
2018-09-30T07:12:35.730Z,45.10
2018-09-30T07:13:39.256Z,45.15
2018-09-30T07:14:42.674Z,44.78
2018-09-30T07:15:46.159Z,45.33
2018-09-30T07:16:49.615Z,45.23
2018-09-30T07:17:53.058Z,44.95
2018-09-30T07:18:56.487Z,44.88
2018-09-30T07:19:59.931Z,43.97
2018-09-30T07:21:03.455Z,44.38
2018-09-30T07:22:06.890Z,44.46
2018-09-30T07:23:10.667Z,44.18
2018-09-30T07:24:14.138Z,44.84
2018-09-30T07:25:17.750Z,44.47
2018-09-30T07:26:21.232Z,44.99
2018-09-30T07:27:24.760Z,45.07
2018-09-30T07:28:28.209Z,44.72
2018-09-30T07:29:31.644Z,44.67
2018-09-30T07:30:35.075Z,44.85
2018-09-30T07:31:38.526Z,44.64
2018-09-30T07:32:42.064Z,44.49
2018-09-30T07:33:45.541Z,44.65
2018-09-30T07:34:49.173Z,44.58
2018-09-30T07:35:52.654Z,44.51
2018-09-30T07:36:56.099Z,44.34
2018-09-30T07:37:59.523Z,44.43
2018-09-30T07:39:03.045Z,43.93
2018-09-30T07:40:06.506Z,44.39
2018-09-30T07:41:09.963Z,44.24
2018-09-30T07:42:13.452Z,44.29
2018-09-30T07:43:17.018Z,44.32
2018-09-30T07:44:20.496Z,44.62
2018-09-30T07:45:23.969Z,44.55
2018-09-30T07:46:27.417Z,45.33
2018-09-30T07:47:30.828Z,44.82
2018-09-30T07:48:34.495Z,44.39
2018-09-30T07:49:37.895Z,44.72
2018-09-30T07:50:41.356Z,45.00
2018-09-30T07:51:44.786Z,44.54
2018-09-30T07:52:48.360Z,44.63
2018-09-30T07:53:51.811Z,44.69
2018-09-30T07:54:55.241Z,43.93
2018-09-30T07:55:58.730Z,44.20
2018-09-30T07:57:02.154Z,44.05
2018-09-30T07:58:05.613Z,44.49
2018-09-30T07:59:09.355Z,44.21
2018-09-30T08:00:12.782Z,43.85
2018-09-30T08:01:16.334Z,44.60
2018-09-30T08:02:20.353Z,44.19
2018-09-30T08:03:23.903Z,44.03
2018-09-30T08:04:27.352Z,44.83
2018-09-30T08:05:30.774Z,44.22
2018-09-30T08:06:34.229Z,44.35
2018-09-30T08:07:37.640Z,44.63
2018-09-30T08:08:41.130Z,45.06
2018-09-30T08:09:44.569Z,44.92
2018-09-30T08:10:48.037Z,45.73
2018-09-30T08:11:51.457Z,46.28
2018-09-30T08:12:54.869Z,45.91
2018-09-30T08:13:58.412Z,45.73
2018-09-30T08:15:01.855Z,44.47
2018-09-30T08:16:05.302Z,45.09
2018-09-30T08:17:08.691Z,45.42
2018-09-30T08:18:12.141Z,45.36
2018-09-30T08:19:15.618Z,45.22
2018-09-30T08:20:19.055Z,45.86
2018-09-30T08:21:22.603Z,46.54
2018-09-30T08:22:26.037Z,45.93
2018-09-30T08:23:29.517Z,46.15
2018-09-30T08:24:33.010Z,46.18
2018-09-30T08:25:36.473Z,46.64
2018-09-30T08:26:40.050Z,46.78
2018-09-30T08:27:43.593Z,46.96
2018-09-30T08:28:47.158Z,47.56
2018-09-30T08:29:50.796Z,47.14
2018-09-30T08:30:54.332Z,47.38
2018-09-30T08:31:57.740Z,47.83
2018-09-30T08:33:01.153Z,48.09
2018-09-30T08:34:04.637Z,48.27
2018-09-30T08:35:08.151Z,48.45
2018-09-30T08:36:12.707Z,47.78
2018-09-30T08:37:20.339Z,47.83
2018-09-30T08:38:29.836Z,47.55
2018-09-30T08:39:33.307Z,47.98
2018-09-30T08:40:42.171Z,47.72
2018-09-30T08:41:45.665Z,47.97
2018-09-30T08:42:49.225Z,47.86
2018-09-30T08:43:52.710Z,48.12
2018-09-30T08:44:56.258Z,48.11
2018-09-30T08:46:00.288Z,47.90
2018-09-30T08:47:03.725Z,48.26
2018-09-30T08:48:07.176Z,47.51
2018-09-30T08:49:10.719Z,47.79
2018-09-30T08:50:14.456Z,48.13
2018-09-30T08:51:18.094Z,47.72
2018-09-30T08:52:21.573Z,47.40
2018-09-30T08:53:25.449Z,46.92
2018-09-30T08:54:28.971Z,47.40
2018-09-30T08:55:32.414Z,47.04
2018-09-30T08:56:35.907Z,47.82
2018-09-30T08:57:39.406Z,47.16
2018-09-30T08:58:42.820Z,47.13
2018-09-30T08:59:46.320Z,47.04
2018-09-30T09:00:50.166Z,47.21
2018-09-30T09:01:53.785Z,46.67
2018-09-30T09:02:57.267Z,46.60
2018-09-30T09:04:00.712Z,46.92
2018-09-30T09:05:04.219Z,47.20
2018-09-30T09:06:07.640Z,47.34
2018-09-30T09:07:11.257Z,47.33
2018-09-30T09:08:14.712Z,47.18
2018-09-30T09:09:18.179Z,47.30
2018-09-30T09:10:21.661Z,47.54
2018-09-30T09:11:25.266Z,47.86
2018-09-30T09:12:28.744Z,47.88
2018-09-30T09:13:32.268Z,46.50
2018-09-30T09:14:35.725Z,46.26
2018-09-30T09:15:39.282Z,46.32
2018-09-30T09:16:42.939Z,46.76
2018-09-30T09:17:47.351Z,46.92
2018-09-30T09:18:50.983Z,47.21
2018-09-30T09:19:54.584Z,47.21
2018-09-30T09:20:58.113Z,47.23
2018-09-30T09:22:01.597Z,47.00
2018-09-30T09:23:05.063Z,46.62
2018-09-30T09:24:08.586Z,46.69
2018-09-30T09:25:12.078Z,46.67
2018-09-30T09:26:15.567Z,46.52
2018-09-30T09:27:19.309Z,46.82
2018-09-30T09:28:22.773Z,47.08
2018-09-30T09:29:26.204Z,46.78
2018-09-30T09:30:29.646Z,46.53
2018-09-30T09:31:33.192Z,47.08
2018-09-30T09:32:37.222Z,47.24
2018-09-30T09:33:40.673Z,47.16
2018-09-30T09:34:44.113Z,46.35
2018-09-30T09:35:47.901Z,46.95
2018-09-30T09:36:51.339Z,46.24
2018-09-30T09:37:54.866Z,47.14
2018-09-30T09:38:58.255Z,47.22
2018-09-30T09:40:01.699Z,46.96
2018-09-30T09:41:05.338Z,46.59
2018-09-30T09:42:08.884Z,46.54
2018-09-30T09:43:12.325Z,46.69
2018-09-30T09:44:15.860Z,47.16
2018-09-30T09:45:19.354Z,47.33
2018-09-30T09:46:22.876Z,46.58
2018-09-30T09:47:26.331Z,46.35
2018-09-30T09:48:29.750Z,46.91
2018-09-30T09:49:33.252Z,46.43
2018-09-30T09:50:36.866Z,47.16
2018-09-30T09:51:40.985Z,46.87
2018-09-30T09:52:44.525Z,46.78
2018-09-30T09:53:47.960Z,47.33
2018-09-30T09:54:51.420Z,46.36
2018-09-30T09:55:54.867Z,46.93
2018-09-30T09:56:58.300Z,46.27
2018-09-30T09:58:01.829Z,46.39
2018-09-30T09:59:05.506Z,46.99
2018-09-30T10:00:09.792Z,46.28
2018-09-30T10:01:13.283Z,46.78
2018-09-30T10:02:16.745Z,46.33
2018-09-30T10:03:20.195Z,46.42
2018-09-30T10:04:23.619Z,46.66
2018-09-30T10:05:27.083Z,46.45
2018-09-30T10:06:30.517Z,46.08
2018-09-30T10:07:34.062Z,45.97
2018-09-30T10:08:37.548Z,46.40
2018-09-30T10:09:40.994Z,45.87
2018-09-30T10:10:45.419Z,45.87
2018-09-30T10:11:48.982Z,45.81
2018-09-30T10:12:52.457Z,46.27
2018-09-30T10:13:55.885Z,46.39
2018-09-30T10:14:59.290Z,45.99
2018-09-30T10:16:02.724Z,45.59
2018-09-30T10:17:06.217Z,45.95
2018-09-30T10:18:09.723Z,46.20
2018-09-30T10:19:13.254Z,46.04
2018-09-30T10:20:16.713Z,45.72
2018-09-30T10:21:20.174Z,45.45
2018-09-30T10:22:23.669Z,45.79
2018-09-30T10:23:27.114Z,45.30
2018-09-30T10:24:31.033Z,45.74
2018-09-30T10:25:34.496Z,45.63
2018-09-30T10:26:37.939Z,45.36
2018-09-30T10:27:41.409Z,45.76
2018-09-30T10:28:44.831Z,45.61
2018-09-30T10:29:48.253Z,45.69
2018-09-30T10:30:51.975Z,45.99
2018-09-30T10:31:55.373Z,46.20
2018-09-30T10:32:58.853Z,45.51
2018-09-30T10:34:02.390Z,45.67
2018-09-30T10:35:06.047Z,46.09
2018-09-30T10:36:09.545Z,45.48
2018-09-30T10:37:13.137Z,45.36
2018-09-30T10:38:16.611Z,45.93
2018-09-30T10:39:20.444Z,45.28
2018-09-30T10:40:23.862Z,45.52
2018-09-30T10:41:27.286Z,45.78
2018-09-30T10:42:31.355Z,45.76
2018-09-30T10:43:34.820Z,46.09
2018-09-30T10:44:38.211Z,45.33
2018-09-30T10:45:41.632Z,46.08
2018-09-30T10:46:45.622Z,45.81
2018-09-30T10:47:49.167Z,45.93
2018-09-30T10:48:52.579Z,45.45
2018-09-30T10:49:56.025Z,46.17
2018-09-30T10:50:59.456Z,46.11
2018-09-30T10:52:03.043Z,46.33
2018-09-30T10:53:06.536Z,45.92
2018-09-30T10:54:10.005Z,45.49
2018-09-30T10:55:13.494Z,45.70
2018-09-30T10:56:16.936Z,45.70
2018-09-30T10:57:20.389Z,46.37
2018-09-30T10:58:23.857Z,46.32
2018-09-30T10:59:27.405Z,46.24
2018-09-30T11:00:30.969Z,46.57
2018-09-30T11:01:34.476Z,46.46
2018-09-30T11:02:37.932Z,46.87
2018-09-30T11:03:41.473Z,46.84
2018-09-30T11:04:44.937Z,46.81
2018-09-30T11:05:48.490Z,46.73
2018-09-30T11:06:51.896Z,46.74
2018-09-30T11:07:55.344Z,46.72
2018-09-30T11:08:58.812Z,47.08
2018-09-30T11:10:02.663Z,47.14
2018-09-30T11:11:06.553Z,46.87
2018-09-30T11:12:09.997Z,47.51
2018-09-30T11:13:13.408Z,46.65
2018-09-30T11:14:16.893Z,46.58
2018-09-30T11:15:20.359Z,47.16
2018-09-30T11:16:23.943Z,47.12
2018-09-30T11:17:27.384Z,47.58
2018-09-30T11:18:30.874Z,47.21
2018-09-30T11:19:34.336Z,47.45
2018-09-30T11:20:37.769Z,47.42
2018-09-30T11:21:41.186Z,47.06
2018-09-30T11:22:44.883Z,47.62
2018-09-30T11:23:48.352Z,47.26
2018-09-30T11:24:51.965Z,47.65
2018-09-30T11:25:55.528Z,47.80
2018-09-30T11:26:58.954Z,47.49
2018-09-30T11:28:02.538Z,47.60
2018-09-30T11:29:06.670Z,47.46
2018-09-30T11:30:10.117Z,47.84
2018-09-30T11:31:13.528Z,47.51
2018-09-30T11:32:17.195Z,47.51
2018-09-30T11:33:20.658Z,47.48
2018-09-30T11:34:24.118Z,47.37
2018-09-30T11:35:27.574Z,48.00
2018-09-30T11:36:31.104Z,47.79
2018-09-30T11:37:34.555Z,47.49
2018-09-30T11:38:38.141Z,47.76
2018-09-30T11:39:41.588Z,47.91
2018-09-30T11:40:45.230Z,47.81
2018-09-30T11:41:48.904Z,47.73
2018-09-30T11:42:52.683Z,47.54
2018-09-30T11:43:56.128Z,48.14
2018-09-30T11:44:59.873Z,48.09
2018-09-30T11:46:03.552Z,48.45
2018-09-30T11:47:07.054Z,48.25
2018-09-30T11:48:10.525Z,48.63
2018-09-30T11:49:13.999Z,47.99
2018-09-30T11:50:17.430Z,48.32
2018-09-30T11:51:20.993Z,48.35
2018-09-30T11:52:24.386Z,48.62
2018-09-30T11:53:27.799Z,47.63
2018-09-30T11:54:31.222Z,48.01
2018-09-30T11:55:34.637Z,48.06
2018-09-30T11:56:38.031Z,47.73
2018-09-30T11:57:41.467Z,47.79
2018-09-30T11:58:44.893Z,48.15
2018-09-30T11:59:48.313Z,48.10
2018-09-30T12:00:51.771Z,47.66
2018-09-30T12:01:55.175Z,48.47
2018-09-30T12:02:58.624Z,48.55
2018-09-30T12:04:02.065Z,48.22
2018-09-30T12:05:05.615Z,48.22
2018-09-30T12:06:09.044Z,48.21
2018-09-30T12:07:12.437Z,48.71
2018-09-30T12:08:16.297Z,48.44
2018-09-30T12:09:19.755Z,48.54
2018-09-30T12:10:23.203Z,48.86
2018-09-30T12:11:26.912Z,48.93
2018-09-30T12:12:30.366Z,48.96
2018-09-30T12:13:33.875Z,48.69
2018-09-30T12:14:37.303Z,48.76
2018-09-30T12:15:40.742Z,48.52
2018-09-30T12:16:44.160Z,48.40
2018-09-30T12:17:47.608Z,48.73
2018-09-30T12:18:51.121Z,48.64
2018-09-30T12:19:54.469Z,48.59
2018-09-30T12:20:57.888Z,48.34
2018-09-30T12:22:01.426Z,48.59
2018-09-30T12:23:04.878Z,48.85
2018-09-30T12:24:08.634Z,48.57
2018-09-30T12:25:12.072Z,48.29
2018-09-30T12:26:15.528Z,48.10
2018-09-30T12:27:19.012Z,48.73
2018-09-30T12:28:22.433Z,48.66
2018-09-30T12:29:25.865Z,49.02
2018-09-30T12:30:29.278Z,48.53
2018-09-30T12:31:32.791Z,48.70
2018-09-30T12:32:36.210Z,48.55
2018-09-30T12:33:39.677Z,48.74
2018-09-30T12:34:43.068Z,49.18
2018-09-30T12:35:46.540Z,49.19
2018-09-30T12:36:50.000Z,48.54
2018-09-30T12:37:53.449Z,49.15
2018-09-30T12:38:56.889Z,49.04
2018-09-30T12:40:00.359Z,48.56
2018-09-30T12:41:03.780Z,48.61
2018-09-30T12:42:07.208Z,49.28
2018-09-30T12:43:10.626Z,49.20
2018-09-30T12:44:14.061Z,49.92
2018-09-30T12:45:17.497Z,50.04
2018-09-30T12:46:20.947Z,50.42
2018-09-30T12:47:24.546Z,50.54
2018-09-30T12:48:27.932Z,50.72
2018-09-30T12:49:31.438Z,50.17
2018-09-30T12:50:34.885Z,49.73
2018-09-30T12:51:38.383Z,49.72
2018-09-30T12:52:41.806Z,49.76
2018-09-30T12:53:45.238Z,49.70
2018-09-30T12:54:48.912Z,48.81
2018-09-30T12:55:52.356Z,49.44
2018-09-30T12:56:55.784Z,49.59
2018-09-30T12:57:59.247Z,49.63
2018-09-30T12:59:02.693Z,48.24
2018-09-30T13:00:06.754Z,48.38
2018-09-30T13:01:10.187Z,48.49
2018-09-30T13:02:15.471Z,48.65
2018-09-30T13:03:18.919Z,49.16
2018-09-30T13:04:22.387Z,48.48
2018-09-30T13:05:25.897Z,48.42
2018-09-30T13:06:29.360Z,48.99
2018-09-30T13:07:32.811Z,48.92
2018-09-30T13:08:36.281Z,49.14
2018-09-30T13:09:39.756Z,48.45
2018-09-30T13:10:43.208Z,48.65
2018-09-30T13:11:46.858Z,48.46
2018-09-30T13:12:50.309Z,48.84
2018-09-30T13:13:53.822Z,48.79
2018-09-30T13:14:57.250Z,49.08
2018-09-30T13:16:00.678Z,49.40
2018-09-30T13:17:04.245Z,49.21
2018-09-30T13:18:07.721Z,48.87
2018-09-30T13:19:11.150Z,48.81
2018-09-30T13:20:14.622Z,49.93
2018-09-30T13:21:18.133Z,49.66
2018-09-30T13:22:21.586Z,49.58
2018-09-30T13:23:25.354Z,50.33
2018-09-30T13:24:28.770Z,51.23
2018-09-30T13:25:32.276Z,50.80
2018-09-30T13:26:35.730Z,50.51
2018-09-30T13:27:39.157Z,51.01
2018-09-30T13:28:42.610Z,50.91
2018-09-30T13:29:46.090Z,50.66
2018-09-30T13:30:49.601Z,51.31
2018-09-30T13:31:53.065Z,51.30
2018-09-30T13:32:56.579Z,53.64
2018-09-30T13:34:00.191Z,54.88
2018-09-30T13:35:03.631Z,53.53
2018-09-30T13:36:07.096Z,53.26
2018-09-30T13:37:10.557Z,52.28
2018-09-30T13:38:14.057Z,53.21
2018-09-30T13:39:17.590Z,52.83